createdAt,value
2017-11-06T00:00:05.576Z,37
2017-11-06T00:02:05.279Z,36.9
2017-11-06T00:04:08.530Z,37
2017-11-06T00:06:05.188Z,37
2017-11-06T00:08:05.905Z,36.9
2017-11-06T00:10:10.302Z,36.7
2017-11-06T00:12:05.040Z,36.5
2017-11-06T00:14:10.867Z,36.6
2017-11-06T00:16:07.682Z,36.6
2017-11-06T00:18:05.112Z,36.5
2017-11-06T00:20:05.800Z,36.4
2017-11-06T00:22:05.244Z,36.5
2017-11-06T00:24:05.473Z,36.5
2017-11-06T00:26:05.229Z,36.4
2017-11-06T00:28:05.945Z,36.4
2017-11-06T00:30:05.676Z,36.2
2017-11-06T00:32:05.371Z,36.3
2017-11-06T00:34:05.336Z,36.3
2017-11-06T00:36:05.189Z,36.2
2017-11-06T00:38:10.982Z,35.9
2017-11-06T00:40:05.711Z,36.1
2017-11-06T00:42:05.539Z,36.1
2017-11-06T00:44:05.356Z,35.9
2017-11-06T00:46:05.097Z,35.8
2017-11-06T00:48:05.795Z,35.7
2017-11-06T00:50:08.107Z,35.7
2017-11-06T00:52:08.337Z,35.8
2017-11-06T00:54:05.571Z,35.7
2017-11-06T00:56:05.281Z,35.8
2017-11-06T00:58:05.131Z,35.6
2017-11-06T01:00:05.797Z,35.6
2017-11-06T01:02:07.533Z,35.7
2017-11-06T01:04:05.389Z,35.6
2017-11-06T01:06:05.110Z,35.6
2017-11-06T01:08:05.826Z,35.8
2017-11-06T01:10:05.569Z,35.8
2017-11-06T01:12:05.296Z,35.7
2017-11-06T01:14:05.066Z,35.7
2017-11-06T01:16:08.404Z,35.4
2017-11-06T01:18:05.392Z,35.5
2017-11-06T01:20:05.164Z,35.5
2017-11-06T01:22:06.055Z,35.4
2017-11-06T01:24:05.272Z,35.6
2017-11-06T01:26:05.960Z,35.3
2017-11-06T01:28:05.685Z,35.5
2017-11-06T01:30:05.404Z,35.1
2017-11-06T01:32:05.147Z,35.2
2017-11-06T01:34:08.426Z,35.3
2017-11-06T01:36:07.798Z,35.4
2017-11-06T01:38:08.116Z,35.4
2017-11-06T01:40:05.928Z,35.4
2017-11-06T01:42:08.247Z,35.1
2017-11-06T01:44:05.193Z,35.1
2017-11-06T01:46:05.953Z,35.2
2017-11-06T01:48:08.215Z,35
2017-11-06T01:50:06.005Z,35.1
2017-11-06T01:52:13.443Z,34.9
2017-11-06T01:54:05.125Z,34.9
2017-11-06T01:56:10.879Z,34.8
2017-11-06T01:58:05.624Z,34.8
2017-11-06T02:00:05.979Z,34.6
2017-11-06T02:02:07.840Z,34.6
2017-11-06T02:04:05.556Z,34.6
2017-11-06T02:06:05.896Z,34.5
2017-11-06T02:08:10.656Z,34.8
2017-11-06T02:10:05.472Z,34.6
2017-11-06T02:12:05.208Z,34.7
2017-11-06T02:14:05.990Z,34.6
2017-11-06T02:16:08.252Z,34.4
2017-11-06T02:18:05.216Z,34.4
2017-11-06T02:20:08.010Z,34.4
2017-11-06T02:22:08.385Z,34.3
2017-11-06T02:24:05.133Z,34.3
2017-11-06T02:26:05.855Z,34.5
2017-11-06T02:28:05.636Z,34.5
2017-11-06T02:30:05.423Z,34.6
2017-11-06T02:32:05.156Z,34.6
2017-11-06T02:34:05.527Z,34.6
2017-11-06T02:36:05.787Z,34.4
2017-11-06T02:38:15.583Z,34.4
2017-11-06T02:40:05.369Z,34.4
2017-11-06T02:42:05.685Z,34.3
2017-11-06T02:44:07.936Z,34.2
2017-11-06T02:46:08.298Z,34.3
2017-11-06T02:48:06.012Z,34.3
2017-11-06T02:50:05.890Z,34.4
2017-11-06T02:52:05.687Z,34.2
2017-11-06T02:54:08.495Z,34.3
2017-11-06T02:56:05.247Z,34.4
2017-11-06T02:58:06.021Z,34.1
2017-11-06T03:00:13.321Z,33.9
2017-11-06T03:02:05.060Z,34
2017-11-06T03:04:05.752Z,34
2017-11-06T03:06:07.979Z,34.1
2017-11-06T03:08:05.704Z,34.1
2017-11-06T03:10:05.421Z,34.2
2017-11-06T03:12:05.659Z,34.2
2017-11-06T03:14:05.894Z,34.1
2017-11-06T03:16:05.144Z,34
2017-11-06T03:18:05.068Z,34.1
2017-11-06T03:20:05.820Z,34.1
2017-11-06T03:22:10.614Z,33.9
2017-11-06T03:24:05.299Z,33.9
2017-11-06T03:26:06.058Z,33.8
2017-11-06T03:28:05.924Z,33.7
2017-11-06T03:30:05.618Z,33.7
2017-11-06T03:32:05.888Z,33.8
2017-11-06T03:34:05.124Z,33.6
2017-11-06T03:36:05.442Z,33.6
2017-11-06T03:38:05.288Z,33.7
2017-11-06T03:40:05.040Z,33.6
2017-11-06T03:42:05.718Z,33.8
2017-11-06T03:44:05.460Z,33.9
2017-11-06T03:46:05.289Z,34
2017-11-06T03:48:05.164Z,34
2017-11-06T03:50:08.410Z,34
2017-11-06T03:52:05.107Z,34
2017-11-06T03:54:08.351Z,33.9
2017-11-06T03:56:07.617Z,33.9
2017-11-06T03:58:05.407Z,33.9
2017-11-06T04:00:05.151Z,34
2017-11-06T04:02:05.833Z,34.2
2017-11-06T04:04:05.541Z,33.9
2017-11-06T04:06:10.301Z,34
2017-11-06T04:08:06.008Z,34
2017-11-06T04:10:05.304Z,34.2
2017-11-06T04:12:05.098Z,34
2017-11-06T04:14:10.898Z,33.8
2017-11-06T04:16:05.110Z,33.8
2017-11-06T04:18:06.063Z,33.8
2017-11-06T04:20:05.719Z,33.8
2017-11-06T04:22:05.479Z,33.8
2017-11-06T04:24:12.801Z,33.8
2017-11-06T04:26:05.656Z,33.8
2017-11-06T04:28:05.422Z,33.7
2017-11-06T04:30:05.143Z,33.6
2017-11-06T04:32:05.909Z,33.4
2017-11-06T04:34:05.679Z,33.6
2017-11-06T04:36:05.480Z,33.5
2017-11-06T04:38:07.742Z,33.7
2017-11-06T04:40:05.452Z,33.7
2017-11-06T04:42:05.357Z,33.6
2017-11-06T04:44:05.090Z,33.6
2017-11-06T04:46:05.813Z,33.7
2017-11-06T04:48:05.479Z,33.7
2017-11-06T04:50:05.200Z,33.7
2017-11-06T04:52:05.916Z,33.6
2017-11-06T04:54:05.600Z,33.7
2017-11-06T04:56:05.879Z,33.6
2017-11-06T04:58:05.703Z,33.5
2017-11-06T05:00:05.362Z,33.5
2017-11-06T05:02:20.226Z,33.3
2017-11-06T05:04:05.548Z,33.3
2017-11-06T05:06:05.740Z,33.3
2017-11-06T05:08:07.986Z,33.5
2017-11-06T05:10:05.849Z,33.4
2017-11-06T05:12:05.621Z,33.4
2017-11-06T05:14:07.926Z,33.5
2017-11-06T05:16:08.193Z,33.5
2017-11-06T05:18:07.752Z,33.5
2017-11-06T05:20:10.591Z,33.5
2017-11-06T05:22:13.018Z,33.7
2017-11-06T05:24:08.407Z,33.8
2017-11-06T05:26:05.235Z,33.7
2017-11-06T05:28:06.090Z,33.8
2017-11-06T05:30:08.442Z,33.8
2017-11-06T05:32:11.108Z,34.5
2017-11-06T05:34:05.807Z,34.2
2017-11-06T05:36:05.069Z,34
2017-11-06T05:38:05.861Z,34
2017-11-06T05:40:05.123Z,34
2017-11-06T05:42:05.833Z,34.2
2017-11-06T05:44:05.541Z,34.2
2017-11-06T05:46:05.258Z,34.2
2017-11-06T05:48:05.950Z,34.3
2017-11-06T05:50:05.718Z,34.5
2017-11-06T05:52:05.518Z,34.8
2017-11-06T05:54:05.249Z,34.8
2017-11-06T05:56:08.540Z,34.7
2017-11-06T05:58:07.796Z,34.7
2017-11-06T06:00:05.637Z,34.7
2017-11-06T06:02:07.892Z,34.8
2017-11-06T06:04:05.794Z,34.8
2017-11-06T06:06:05.481Z,35.1
2017-11-06T06:08:05.204Z,34.9
2017-11-06T06:10:06.025Z,34.9
2017-11-06T06:12:05.823Z,34.9
2017-11-06T06:14:05.506Z,35
2017-11-06T06:16:05.200Z,35
2017-11-06T06:18:05.697Z,35
2017-11-06T06:20:05.950Z,35
2017-11-06T06:22:05.811Z,35
2017-11-06T06:24:05.558Z,35
2017-11-06T06:26:05.282Z,35.1
2017-11-06T06:28:05.019Z,35.2
2017-11-06T06:30:08.243Z,34.9
2017-11-06T06:32:11.025Z,34.9
2017-11-06T06:34:07.928Z,35
2017-11-06T06:36:05.710Z,34.9
2017-11-06T06:38:05.373Z,35
2017-11-06T06:40:05.120Z,34.6
2017-11-06T06:42:10.884Z,34.6
2017-11-06T06:44:07.645Z,34.5
2017-11-06T06:46:05.445Z,34.5
2017-11-06T06:48:05.158Z,34.5
2017-11-06T06:50:05.927Z,34.7
2017-11-06T06:52:05.656Z,34.8
2017-11-06T06:54:05.899Z,34.8
2017-11-06T06:56:05.123Z,34.8
2017-11-06T06:58:08.474Z,34.8
2017-11-06T07:00:05.170Z,34.8
2017-11-06T07:02:05.912Z,34.9
2017-11-06T07:04:05.594Z,35
2017-11-06T07:06:05.331Z,35
2017-11-06T07:08:07.602Z,35
2017-11-06T07:10:05.332Z,35
2017-11-06T07:12:05.031Z,34.8
2017-11-06T07:14:08.397Z,34.9
2017-11-06T07:16:05.675Z,34.9
2017-11-06T07:18:05.584Z,34.9
2017-11-06T07:20:05.318Z,34.9
2017-11-06T07:22:05.527Z,34.8
2017-11-06T07:24:05.206Z,34.9
2017-11-06T07:26:05.549Z,34.9
2017-11-06T07:28:05.395Z,34.9
2017-11-06T07:30:05.106Z,35
2017-11-06T07:32:05.967Z,35
2017-11-06T07:34:05.774Z,35
2017-11-06T07:36:05.467Z,34.8
2017-11-06T07:38:05.204Z,35.1
2017-11-06T07:40:05.424Z,35.2
2017-11-06T07:42:05.645Z,35
2017-11-06T07:44:05.354Z,35
2017-11-06T07:46:05.098Z,35.2
2017-11-06T07:48:05.892Z,35.2
2017-11-06T07:50:05.726Z,35.4
2017-11-06T07:52:08.445Z,35.6
2017-11-06T07:54:05.133Z,35.6
2017-11-06T07:56:05.825Z,35.6
2017-11-06T07:58:05.543Z,35.6
2017-11-06T08:00:05.276Z,35.6
2017-11-06T08:02:08.499Z,35.6
2017-11-06T08:04:05.835Z,35.3
2017-11-06T08:06:08.074Z,35.6
2017-11-06T08:08:05.778Z,35.6
2017-11-06T08:10:05.534Z,35.5
2017-11-06T08:12:05.726Z,35.6
2017-11-06T08:14:05.411Z,35.5
2017-11-06T08:16:05.150Z,35.6
2017-11-06T08:18:12.671Z,35.8
2017-11-06T08:20:05.661Z,35.7
2017-11-06T08:22:05.482Z,35.7
2017-11-06T08:24:07.711Z,35.8
2017-11-06T08:26:05.595Z,35.8
2017-11-06T08:28:05.282Z,35.8
2017-11-06T08:30:05.941Z,35.8
2017-11-06T08:32:05.614Z,35.7
2017-11-06T08:34:05.906Z,35.7
2017-11-06T08:36:05.590Z,35.7
2017-11-06T08:38:05.280Z,35.6
2017-11-06T08:40:06.011Z,35.8
2017-11-06T08:42:08.224Z,35.8
2017-11-06T08:44:05.938Z,35.9
2017-11-06T08:46:05.931Z,35.9
2017-11-06T08:48:05.619Z,35.8
2017-11-06T08:50:07.844Z,35.7
2017-11-06T08:52:05.606Z,35.7
2017-11-06T08:54:05.953Z,36
2017-11-06T08:56:05.684Z,35.9
2017-11-06T08:58:10.752Z,35.7
2017-11-06T09:00:05.637Z,35.7
2017-11-06T09:02:05.836Z,35.8
2017-11-06T09:04:08.109Z,35.8
2017-11-06T09:06:05.864Z,35.8
2017-11-06T09:08:05.589Z,36
2017-11-06T09:10:05.370Z,35.9
2017-11-06T09:12:05.073Z,35.8
2017-11-06T09:14:08.410Z,35.9
2017-11-06T09:16:13.319Z,35.9
2017-11-06T09:18:05.210Z,35.8
2017-11-06T09:20:08.031Z,35.7
2017-11-06T09:22:05.746Z,35.8
2017-11-06T09:24:05.545Z,35.8
2017-11-06T09:26:08.463Z,35.7
2017-11-06T09:28:05.150Z,35.7
2017-11-06T09:30:05.891Z,35.9
2017-11-06T09:32:05.625Z,35.9
2017-11-06T09:34:05.947Z,35.9
2017-11-06T09:36:05.753Z,36.1
2017-11-06T09:38:05.151Z,36
2017-11-06T09:40:12.286Z,35.7
2017-11-06T09:42:05.272Z,35.9
2017-11-06T09:44:13.576Z,35.9
2017-11-06T09:46:05.341Z,35.9
2017-11-06T09:48:05.089Z,36
2017-11-06T09:50:05.798Z,35.7
2017-11-06T09:52:05.560Z,35.7
2017-11-06T09:54:15.372Z,35.8
2017-11-06T09:56:05.080Z,35.9
2017-11-06T09:58:05.830Z,35.9
2017-11-06T10:00:10.701Z,35.9
2017-11-06T10:02:10.489Z,35.8
2017-11-06T10:04:05.179Z,35.8
2017-11-06T10:06:05.840Z,35.9
2017-11-06T10:08:05.553Z,36
2017-11-06T10:10:05.322Z,36
2017-11-06T10:12:07.568Z,36
2017-11-06T10:14:07.803Z,35.8
2017-11-06T10:16:05.525Z,35.8
2017-11-06T10:18:05.493Z,35.8
2017-11-06T10:20:05.761Z,35.9
2017-11-06T10:22:05.539Z,35.9
2017-11-06T10:24:05.241Z,35.9
2017-11-06T10:26:06.007Z,36
2017-11-06T10:28:05.778Z,36
2017-11-06T10:30:05.716Z,36.1
2017-11-06T10:32:13.043Z,36
2017-11-06T10:34:05.867Z,36.1
2017-11-06T10:36:05.168Z,36.1
2017-11-06T10:38:10.925Z,35.9
2017-11-06T10:40:05.732Z,35.9
2017-11-06T10:42:05.609Z,35.9
2017-11-06T10:44:05.318Z,35.9
2017-11-06T10:46:05.017Z,35.9
2017-11-06T10:48:05.708Z,35.9
2017-11-06T10:50:08.002Z,35.9
2017-11-06T10:52:08.401Z,35.9
2017-11-06T10:54:05.127Z,35.9
2017-11-06T10:56:05.849Z,35.9
2017-11-06T10:58:05.625Z,35.9
2017-11-06T11:00:05.341Z,35.9
2017-11-06T11:02:05.060Z,35.9
2017-11-06T11:04:05.799Z,35.9
2017-11-06T11:06:05.551Z,35.9
2017-11-06T11:08:10.315Z,35.9
2017-11-06T11:10:05.134Z,35.9
2017-11-06T11:12:05.912Z,35.9
2017-11-06T11:14:08.225Z,35.9
2017-11-06T11:16:08.035Z,35.7
2017-11-06T11:18:06.013Z,35.7
2017-11-06T11:20:05.762Z,35.7
2017-11-06T11:22:05.611Z,35.7
2017-11-06T11:24:10.160Z,35.7
2017-11-06T11:26:05.683Z,35.7
2017-11-06T11:28:08.453Z,35.7
2017-11-06T11:30:05.246Z,35.7
2017-11-06T11:32:05.918Z,35.7
2017-11-06T11:34:08.160Z,35.7
2017-11-06T11:36:05.840Z,35.7
2017-11-06T11:38:05.836Z,35.7
2017-11-06T11:40:28.304Z,35.7
2017-11-06T11:42:08.097Z,35.7
2017-11-06T11:44:05.877Z,35.7
2017-11-06T11:46:05.556Z,35.7
2017-11-06T11:48:05.197Z,35.7
2017-11-06T11:50:05.452Z,35.7
2017-11-06T11:52:07.781Z,35.7
2017-11-06T11:54:05.532Z,35.7
2017-11-06T11:56:05.770Z,35.7
2017-11-06T11:58:08.119Z,35.7
2017-11-06T12:00:10.942Z,35.7
2017-11-06T12:02:08.245Z,35.7
2017-11-06T12:04:05.967Z,35.7
2017-11-06T12:06:08.319Z,35.7
2017-11-06T12:08:10.282Z,35.7
2017-11-06T12:10:08.586Z,35.4
2017-11-06T12:12:05.281Z,35.7
2017-11-06T12:14:05.976Z,35.4
2017-11-06T12:16:10.922Z,35.4
2017-11-06T12:18:05.897Z,35.4
2017-11-06T12:20:07.664Z,35.4
2017-11-06T12:22:08.016Z,35.4
2017-11-06T12:24:05.239Z,35.4
2017-11-06T12:26:06.015Z,35.4
2017-11-06T12:28:05.746Z,35.4
2017-11-06T12:30:13.172Z,35.4
2017-11-06T12:32:05.923Z,35.4
2017-11-06T12:34:05.667Z,35.4
2017-11-06T12:36:07.902Z,35.4
2017-11-06T12:38:05.629Z,35.4
2017-11-06T12:40:05.512Z,35.2
2017-11-06T12:42:05.243Z,35.4
2017-11-06T12:44:08.105Z,35.4
2017-11-06T12:46:05.913Z,35.4
2017-11-06T12:48:08.230Z,35.4
2017-11-06T12:50:05.958Z,35.5
2017-11-06T12:52:05.815Z,35.4
2017-11-06T12:54:05.633Z,35.4
2017-11-06T12:56:05.385Z,35.4
2017-11-06T12:58:06.015Z,35.4
2017-11-06T13:00:08.268Z,35.4
2017-11-06T13:02:13.522Z,35.4
2017-11-06T13:04:07.855Z,35.4
2017-11-06T13:06:05.609Z,35.7
2017-11-06T13:08:05.850Z,35.9
2017-11-06T13:10:05.724Z,35.5
2017-11-06T13:12:05.425Z,35.6
2017-11-06T13:14:05.247Z,35.7
2017-11-06T13:16:06.114Z,35.8
2017-11-06T13:18:05.121Z,35.8
2017-11-06T13:20:05.856Z,35.8
2017-11-06T13:22:05.707Z,35.9
2017-11-06T13:24:05.461Z,36
2017-11-06T13:26:07.701Z,36.1
2017-11-06T13:28:05.993Z,36.1
2017-11-06T13:30:05.722Z,36.1
2017-11-06T13:32:05.532Z,35.9
2017-11-06T13:34:05.295Z,35.7
2017-11-06T13:36:05.634Z,35.7
2017-11-06T13:38:05.471Z,35.9
2017-11-06T13:40:05.183Z,35.9
2017-11-06T13:42:08.443Z,35.7
2017-11-06T13:44:05.124Z,35.7
2017-11-06T13:46:06.567Z,35.9
2017-11-06T13:48:05.248Z,35.7
2017-11-06T13:50:05.558Z,35.7
2017-11-06T13:52:06.000Z,35.7
2017-11-06T13:54:06.790Z,35.9
2017-11-06T13:56:10.587Z,35.8
2017-11-06T13:58:11.322Z,35.7
2017-11-06T14:00:07.583Z,35.9
2017-11-06T14:02:05.284Z,35.9
2017-11-06T14:04:07.851Z,35.7
2017-11-06T14:06:13.111Z,35.9
2017-11-06T14:08:05.263Z,35.9
2017-11-06T14:10:11.157Z,35.7
2017-11-06T14:12:18.544Z,35.7
2017-11-06T14:14:07.797Z,36.3
2017-11-06T14:16:05.640Z,36.1
2017-11-06T14:18:05.578Z,36.2
2017-11-06T14:20:05.330Z,36
2017-11-06T14:22:07.634Z,36.2
2017-11-06T14:24:05.345Z,36.2
2017-11-06T14:26:05.272Z,36.3
2017-11-06T14:28:06.017Z,36.3
2017-11-06T14:30:05.735Z,36.3
2017-11-06T14:32:10.570Z,36.3
2017-11-06T14:34:05.636Z,36.4
2017-11-06T14:36:05.352Z,36.1
2017-11-06T14:38:07.801Z,36
2017-11-06T14:40:08.178Z,36.4
2017-11-06T14:42:05.894Z,36.4
2017-11-06T14:44:10.664Z,36.1
2017-11-06T14:46:05.422Z,36.1
2017-11-06T14:48:05.104Z,36.1
2017-11-06T14:50:05.923Z,36.3
2017-11-06T14:52:05.737Z,36.3
2017-11-06T14:54:05.483Z,36.2
2017-11-06T14:56:05.966Z,36.4
2017-11-06T14:58:05.295Z,36.4
2017-11-06T15:00:08.483Z,36.1
2017-11-06T15:02:05.190Z,36.1
2017-11-06T15:04:05.913Z,36.2
2017-11-06T15:06:05.865Z,36.2
2017-11-06T15:08:05.649Z,36
2017-11-06T15:10:05.515Z,35.9
2017-11-06T15:12:05.207Z,36
2017-11-06T15:14:05.907Z,36.1
2017-11-06T15:16:05.629Z,35.9
2017-11-06T15:18:05.582Z,36
2017-11-06T15:20:05.349Z,36.1
2017-11-06T15:22:05.740Z,36
2017-11-06T15:24:05.553Z,35.9
2017-11-06T15:26:05.307Z,36.1
2017-11-06T15:28:06.177Z,36.1
2017-11-06T15:30:05.903Z,36
2017-11-06T15:32:08.185Z,36.1
2017-11-06T15:34:05.917Z,36.1
2017-11-06T15:36:05.641Z,35.9
2017-11-06T15:38:05.439Z,36.1
2017-11-06T15:40:10.784Z,36
2017-11-06T15:42:05.534Z,36
2017-11-06T15:44:07.867Z,36.1
2017-11-06T15:46:05.692Z,36.3
2017-11-06T15:48:05.445Z,36
2017-11-06T15:50:05.362Z,36.2
2017-11-06T15:52:05.082Z,36.1
2017-11-06T15:54:05.776Z,36.1
2017-11-06T15:56:07.978Z,36.1
2017-11-06T15:58:05.736Z,36.1
2017-11-06T16:00:05.435Z,36.1
2017-11-06T16:02:05.122Z,35.9
2017-11-06T16:04:05.893Z,36
2017-11-06T16:06:05.335Z,35.8
2017-11-06T16:08:07.610Z,35.7
2017-11-06T16:10:05.627Z,35.7
2017-11-06T16:12:05.362Z,35.8
2017-11-06T16:14:05.057Z,35.8
2017-11-06T16:16:06.419Z,36.1
2017-11-06T16:18:05.456Z,36.1
2017-11-06T16:20:10.175Z,35.7
2017-11-06T16:22:05.528Z,35.8
2017-11-06T16:24:05.256Z,35.9
2017-11-06T16:26:06.106Z,35.9
2017-11-06T16:28:05.765Z,35.9
2017-11-06T16:30:05.871Z,35.9
2017-11-06T16:32:05.577Z,36.1
2017-11-06T16:34:05.539Z,36.1
2017-11-06T16:36:08.327Z,36.1
2017-11-06T16:38:05.032Z,36.1
2017-11-06T16:40:05.879Z,36.1
2017-11-06T16:42:08.687Z,36.1
2017-11-06T16:44:05.499Z,36.1
2017-11-06T16:46:05.294Z,36.3
2017-11-06T16:48:05.548Z,36.3
2017-11-06T16:50:05.825Z,36.3
2017-11-06T16:52:05.031Z,36.3
2017-11-06T16:54:05.692Z,36.3
2017-11-06T16:56:10.886Z,36.3
2017-11-06T16:58:06.680Z,36.3
2017-11-06T17:00:05.397Z,36.3
2017-11-06T17:02:05.120Z,36.3
2017-11-06T17:04:06.100Z,36.3
2017-11-06T17:06:05.849Z,36.3
2017-11-06T17:08:10.630Z,36.3
2017-11-06T17:10:05.939Z,36.1
2017-11-06T17:12:08.184Z,36.3
2017-11-06T17:14:05.975Z,36.1
2017-11-06T17:16:08.270Z,36.3
2017-11-06T17:18:05.754Z,36.3
2017-11-06T17:20:08.086Z,36.3
2017-11-06T17:22:05.364Z,36.3
2017-11-06T17:24:05.083Z,36.3
2017-11-06T17:26:05.820Z,36.3
2017-11-06T17:28:05.741Z,36.6
2017-11-06T17:30:08.136Z,36.6
2017-11-06T17:32:05.561Z,36.3
2017-11-06T17:34:05.326Z,36.3
2017-11-06T17:36:07.624Z,36.6
2017-11-06T17:38:05.303Z,36.6
2017-11-06T17:40:11.094Z,36.6
2017-11-06T17:42:05.827Z,36.6
2017-11-06T17:44:05.540Z,36.6
2017-11-06T17:46:05.325Z,36.6
2017-11-06T17:48:05.647Z,36.6
2017-11-06T17:50:05.356Z,36.6
2017-11-06T17:52:07.693Z,36.6
2017-11-06T17:54:05.387Z,36.6
2017-11-06T17:56:05.086Z,36.6
2017-11-06T17:58:08.372Z,36.6
2017-11-06T18:00:07.585Z,36.6
2017-11-06T18:02:05.859Z,36.6
2017-11-06T18:04:05.682Z,36.8
2017-11-06T18:06:05.947Z,36.7
2017-11-06T18:08:10.695Z,36.5
2017-11-06T18:10:05.427Z,36.8
2017-11-06T18:12:05.230Z,36.6
2017-11-06T18:14:05.947Z,36.4
2017-11-06T18:16:08.466Z,36.4
2017-11-06T18:18:07.930Z,36.6
2017-11-06T18:20:05.644Z,36.7
2017-11-06T18:22:05.392Z,36.8
2017-11-06T18:24:08.123Z,36.6
2017-11-06T18:26:05.892Z,36.6
2017-11-06T18:28:05.661Z,36.5
2017-11-06T18:30:05.444Z,36.6
2017-11-06T18:32:05.195Z,36.6
2017-11-06T18:34:11.071Z,36.4
2017-11-06T18:36:05.785Z,36.6
2017-11-06T18:38:05.671Z,36.6
2017-11-06T18:40:05.548Z,36.5
2017-11-06T18:42:05.297Z,36.7
2017-11-06T18:44:07.659Z,36.5
2017-11-06T18:46:05.442Z,36.7
2017-11-06T18:48:05.701Z,36.7
2017-11-06T18:50:05.488Z,36.6
2017-11-06T18:52:05.897Z,36.8
2017-11-06T18:54:05.577Z,36.8
2017-11-06T18:56:05.878Z,36.7
2017-11-06T18:58:05.667Z,36.6
2017-11-06T19:00:05.436Z,36.6
2017-11-06T19:02:05.151Z,36.5
2017-11-06T19:04:05.414Z,36.5
2017-11-06T19:06:05.574Z,36.5
2017-11-06T19:08:05.325Z,36.6
2017-11-06T19:10:05.066Z,36.8
2017-11-06T19:12:08.285Z,36.7
2017-11-06T19:14:06.024Z,36.7
2017-11-06T19:16:05.474Z,36.7
2017-11-06T19:18:08.048Z,36.8
2017-11-06T19:20:10.862Z,36.8
2017-11-06T19:22:05.643Z,36.5
2017-11-06T19:24:05.494Z,36.8
2017-11-06T19:26:05.250Z,36.8
2017-11-06T19:28:05.669Z,36.5
2017-11-06T19:30:05.407Z,36.7
2017-11-06T19:32:05.197Z,36.7
2017-11-06T19:34:06.026Z,36.8
2017-11-06T19:36:08.253Z,36.9
2017-11-06T19:38:10.974Z,36.9
2017-11-06T19:40:05.427Z,37.3
2017-11-06T19:42:05.226Z,37.3
2017-11-06T19:44:06.014Z,37.3
2017-11-06T19:46:08.295Z,37.5
2017-11-06T19:48:08.541Z,37.5
2017-11-06T19:50:05.251Z,37.5
2017-11-06T19:52:05.317Z,37.5
2017-11-06T19:54:05.639Z,37.5
2017-11-06T19:56:06.382Z,37.5
2017-11-06T19:58:05.111Z,37.5
2017-11-06T20:00:05.938Z,37.5
2017-11-06T20:02:10.812Z,37.3
2017-11-06T20:04:05.113Z,37.3
2017-11-06T20:06:05.962Z,37.5
2017-11-06T20:08:05.675Z,37.5
2017-11-06T20:10:05.802Z,37.5
2017-11-06T20:12:10.296Z,37.5
2017-11-06T20:14:08.046Z,37.5
2017-11-06T20:16:07.950Z,37.3
2017-11-06T20:18:11.973Z,37.2
2017-11-06T20:20:07.865Z,37.2
2017-11-06T20:22:08.353Z,37.4
2017-11-06T20:24:05.276Z,37.2
2017-11-06T20:26:06.830Z,37.3
2017-11-06T20:28:08.544Z,37.6
2017-11-06T20:30:05.300Z,37.6
2017-11-06T20:32:05.013Z,37.3
2017-11-06T20:34:06.787Z,37.1
2017-11-06T20:36:05.720Z,37.3
2017-11-06T20:38:05.416Z,37.2
2017-11-06T20:40:05.185Z,37.1
2017-11-06T20:42:07.713Z,37.5
2017-11-06T20:44:05.677Z,37.5
2017-11-06T20:46:13.014Z,37.2
2017-11-06T20:48:05.739Z,37.2
2017-11-06T20:50:05.445Z,37.2
2017-11-06T20:52:05.264Z,37.5
2017-11-06T20:54:06.234Z,37.5
2017-11-06T20:56:07.687Z,37.5
2017-11-06T20:58:05.573Z,37.5
2017-11-06T21:00:17.760Z,37.5
2017-11-06T21:02:05.563Z,37.5
2017-11-06T21:04:05.394Z,37.5
2017-11-06T21:06:06.048Z,37.5
2017-11-06T21:08:05.169Z,37.5
2017-11-06T21:10:05.917Z,37.5
2017-11-06T21:12:15.730Z,37.5
2017-11-06T21:14:05.557Z,37.5
2017-11-06T21:16:05.346Z,37.5
2017-11-06T21:18:05.235Z,37.5
2017-11-06T21:20:05.895Z,37.5
2017-11-06T21:22:08.257Z,37.5
2017-11-06T21:24:06.385Z,37.5
2017-11-06T21:26:05.099Z,37.4
2017-11-06T21:28:08.456Z,37.4
2017-11-06T21:30:05.300Z,37.4
2017-11-06T21:32:08.561Z,37
2017-11-06T21:34:05.247Z,37.3
2017-11-06T21:36:05.545Z,37.4
2017-11-06T21:38:05.463Z,37.3
2017-11-06T21:40:05.297Z,37.3
2017-11-06T21:42:05.970Z,37.1
2017-11-06T21:44:05.818Z,37.3
2017-11-06T21:46:05.587Z,37.4
2017-11-06T21:48:05.512Z,37.4
2017-11-06T21:50:06.237Z,37.4
2017-11-06T21:52:05.121Z,37.2
2017-11-06T21:54:05.808Z,37.1
2017-11-06T21:56:05.511Z,37.2
2017-11-06T21:58:05.234Z,37.1
2017-11-06T22:00:08.445Z,37.3
2017-11-06T22:02:05.187Z,37.2
2017-11-06T22:04:06.083Z,37.1
2017-11-06T22:06:08.306Z,37.1
2017-11-06T22:08:05.054Z,37.1
2017-11-06T22:10:05.288Z,37.1
2017-11-06T22:12:07.786Z,37.1
2017-11-06T22:14:05.564Z,37.1
2017-11-06T22:16:05.338Z,37
2017-11-06T22:18:05.372Z,37.1
2017-11-06T22:20:07.693Z,37
2017-11-06T22:22:05.500Z,37.1
2017-11-06T22:24:05.264Z,37.3
2017-11-06T22:26:05.459Z,37.1
2017-11-06T22:28:05.831Z,37.1
2017-11-06T22:30:05.526Z,37.1
2017-11-06T22:32:05.242Z,37.1
2017-11-06T22:34:06.012Z,37
2017-11-06T22:36:05.927Z,37
2017-11-06T22:38:10.919Z,36.9
2017-11-06T22:40:05.685Z,36.9
2017-11-06T22:42:10.435Z,36.9
2017-11-06T22:44:07.685Z,37
2017-11-06T22:46:05.446Z,37
2017-11-06T22:48:05.160Z,37
2017-11-06T22:50:05.896Z,36.9
2017-11-06T22:52:05.284Z,37
2017-11-06T22:54:05.973Z,37
2017-11-06T22:56:10.797Z,36.9
2017-11-06T22:58:05.595Z,36.8
2017-11-06T23:00:07.819Z,36.8
2017-11-06T23:02:05.053Z,36.8
2017-11-06T23:04:05.777Z,36.8
2017-11-06T23:06:05.472Z,36.7
2017-11-06T23:08:05.137Z,36.6
2017-11-06T23:10:05.909Z,36.7
2017-11-06T23:12:05.615Z,36.9
2017-11-06T23:14:05.379Z,36.7
2017-11-06T23:16:05.641Z,36.7
2017-11-06T23:18:05.552Z,36.8
2017-11-06T23:20:05.358Z,36.8
2017-11-06T23:22:05.083Z,36.9
2017-11-06T23:24:05.829Z,36.6
2017-11-06T23:26:05.195Z,36.6
2017-11-06T23:28:08.574Z,36.8
2017-11-06T23:30:05.271Z,36.8
2017-11-06T23:32:05.992Z,36.7
2017-11-06T23:34:05.708Z,36.8
2017-11-06T23:36:10.553Z,36.6
2017-11-06T23:38:05.284Z,36.6
2017-11-06T23:40:08.619Z,36.6
2017-11-06T23:42:10.373Z,36.5
2017-11-06T23:44:05.071Z,36.5
2017-11-06T23:46:05.833Z,36.6
2017-11-06T23:48:05.628Z,36.5
2017-11-06T23:50:05.351Z,36.6
2017-11-06T23:52:05.567Z,36.6
2017-11-06T23:54:05.893Z,36.5
2017-11-06T23:56:05.592Z,36.6
2017-11-06T23:58:05.372Z,36.5
